createdAt,value
2023-01-18T00:01:37.369Z,47.47
2023-01-18T00:04:09.931Z,42.70
2023-01-18T00:06:42.975Z,53.22
2023-01-18T00:09:15.597Z,47.00
2023-01-18T00:11:49.330Z,49.47
2023-01-18T00:14:22.050Z,58.58
2023-01-18T00:16:55.446Z,48.85
2023-01-18T00:19:28.097Z,50.15
2023-01-18T00:22:00.964Z,50.65
2023-01-18T00:24:33.946Z,43.03
2023-01-18T00:27:08.871Z,42.55
2023-01-18T00:29:41.530Z,46.15
2023-01-18T00:32:14.854Z,35.75
2023-01-18T00:34:49.195Z,39.90
2023-01-18T00:37:26.210Z,33.63
2023-01-18T00:39:58.799Z,36.60
2023-01-18T00:42:50.590Z,36.70
2023-01-18T00:45:23.136Z,41.65
2023-01-18T00:47:56.054Z,36.38
2023-01-18T00:50:28.604Z,35.35
2023-01-18T00:53:01.717Z,34.85
2023-01-18T00:55:34.314Z,35.30
2023-01-18T00:58:07.267Z,30.83
2023-01-18T01:00:39.964Z,33.13
2023-01-18T01:03:15.879Z,34.90
2023-01-18T01:06:07.381Z,31.23
2023-01-18T01:11:12.981Z,45.00
2023-01-18T01:14:04.302Z,37.95
2023-01-18T01:16:55.420Z,33.00
2023-01-18T01:19:46.705Z,32.55
2023-01-18T01:22:37.734Z,35.85
2023-01-18T01:25:29.053Z,36.72
2023-01-18T01:28:01.605Z,30.40
2023-01-18T01:30:34.708Z,27.73
2023-01-18T01:33:07.293Z,28.42
2023-01-18T01:35:40.274Z,39.53
2023-01-18T01:38:12.797Z,34.50
2023-01-18T01:40:55.433Z,30.48
2023-01-18T01:43:43.903Z,31.92
2023-01-18T01:46:23.876Z,23.85
2023-01-18T01:48:59.098Z,29.15
2023-01-18T01:51:33.068Z,26.67
2023-01-18T01:54:07.542Z,31.63
2023-01-18T01:56:41.240Z,39.15
2023-01-18T01:59:14.335Z,29.98
2023-01-18T02:01:47.619Z,33.38
2023-01-18T02:04:20.250Z,21.08
2023-01-18T02:06:53.143Z,24.05
2023-01-18T02:09:25.866Z,46.08
2023-01-18T02:11:58.808Z,43.22
2023-01-18T02:14:32.029Z,29.75
2023-01-18T02:17:05.396Z,40.53
2023-01-18T02:19:56.405Z,29.20
2023-01-18T02:22:47.738Z,37.22
2023-01-18T02:25:40.885Z,40.37
2023-01-18T02:28:16.644Z,30.85
2023-01-18T02:30:52.194Z,23.00
2023-01-18T02:33:30.998Z,36.50
2023-01-18T02:36:03.869Z,28.02
2023-01-18T02:38:39.885Z,23.98
2023-01-18T02:41:51.055Z,36.45
2023-01-18T02:44:55.304Z,25.08
2023-01-18T02:47:28.518Z,32.25
2023-01-18T02:50:03.972Z,34.58
2023-01-18T02:52:47.627Z,26.58
2023-01-18T02:55:43.352Z,35.25
2023-01-18T02:58:15.974Z,35.58
2023-01-18T03:00:56.176Z,32.55
2023-01-18T03:03:28.776Z,24.58
2023-01-18T03:06:02.735Z,36.33
2023-01-18T03:08:52.897Z,29.75
2023-01-18T03:11:28.994Z,25.77
2023-01-18T03:14:12.667Z,35.53
2023-01-18T03:16:58.761Z,26.92
2023-01-18T03:19:57.499Z,33.13
2023-01-18T03:22:52.445Z,32.58
2023-01-18T03:25:39.289Z,31.40
2023-01-18T03:28:33.581Z,45.22
2023-01-18T03:31:27.284Z,36.40
2023-01-18T03:34:10.120Z,41.42
2023-01-18T03:36:48.141Z,27.23
2023-01-18T03:39:21.142Z,32.28
2023-01-18T03:41:55.181Z,38.20
2023-01-18T03:44:54.533Z,34.72
2023-01-18T03:47:27.249Z,29.40
2023-01-18T03:50:00.319Z,40.38
2023-01-18T03:52:42.597Z,32.03
2023-01-18T03:55:18.121Z,24.25
2023-01-18T03:57:53.783Z,22.55
2023-01-18T04:00:27.075Z,23.77
2023-01-18T04:03:00.131Z,21.38
2023-01-18T04:05:34.379Z,22.08
2023-01-18T04:08:07.082Z,27.75
2023-01-18T04:10:40.017Z,24.98
2023-01-18T04:13:12.574Z,31.65
2023-01-18T04:15:45.566Z,20.45
2023-01-18T04:18:18.133Z,16.40
2023-01-18T04:20:56.597Z,25.52
2023-01-18T04:23:29.146Z,25.88
2023-01-18T04:26:02.113Z,12.77
2023-01-18T04:28:34.960Z,16.50
2023-01-18T04:31:08.438Z,14.75
2023-01-18T04:33:41.090Z,16.92
2023-01-18T04:36:14.093Z,26.92
2023-01-18T04:38:46.770Z,23.80
2023-01-18T04:41:19.794Z,23.17
2023-01-18T04:43:52.387Z,24.98
2023-01-18T04:46:31.508Z,21.88
2023-01-18T04:49:04.562Z,32.72
2023-01-18T04:51:38.435Z,18.33
2023-01-18T04:54:11.494Z,28.50
2023-01-18T04:56:44.425Z,28.75
2023-01-18T04:59:17.217Z,31.40
2023-01-18T05:01:50.221Z,24.17
2023-01-18T05:04:22.997Z,20.60
2023-01-18T05:06:56.000Z,22.60
2023-01-18T05:09:28.845Z,19.38
2023-01-18T05:12:01.761Z,13.25
2023-01-18T05:14:34.345Z,23.27
2023-01-18T05:17:07.750Z,22.58
2023-01-18T05:19:40.911Z,23.67
2023-01-18T05:22:13.824Z,25.67
2023-01-18T05:24:46.356Z,29.30
2023-01-18T05:27:19.239Z,17.08
2023-01-18T05:29:51.889Z,18.85
2023-01-18T05:32:24.832Z,21.10
2023-01-18T05:34:57.427Z,20.15
2023-01-18T05:37:30.331Z,26.85
2023-01-18T05:40:02.971Z,20.48
2023-01-18T05:42:36.394Z,18.75
2023-01-18T05:45:11.175Z,22.65
2023-01-18T05:47:44.128Z,24.92
2023-01-18T05:50:18.303Z,20.95
2023-01-18T05:52:51.344Z,11.32
2023-01-18T05:55:23.881Z,16.48
2023-01-18T05:57:57.805Z,23.08
2023-01-18T06:00:30.692Z,14.90
2023-01-18T06:03:03.719Z,19.38
2023-01-18T06:05:36.264Z,15.15
2023-01-18T06:08:09.194Z,20.45
2023-01-18T06:10:42.006Z,17.92
2023-01-18T06:13:14.910Z,15.40
2023-01-18T06:15:49.605Z,23.48
2023-01-18T06:18:23.439Z,14.43
2023-01-18T06:21:00.287Z,20.92
2023-01-18T06:23:35.654Z,16.40
2023-01-18T06:26:08.223Z,18.65
2023-01-18T06:28:41.089Z,15.48
2023-01-18T06:31:13.825Z,11.10
2023-01-18T06:33:46.769Z,16.85
2023-01-18T06:36:19.370Z,9.35
2023-01-18T06:38:52.381Z,17.17
2023-01-18T06:41:25.076Z,8.77
2023-01-18T06:43:58.138Z,10.80
2023-01-18T06:46:30.927Z,18.02
2023-01-18T06:49:04.496Z,15.02
2023-01-18T06:51:37.166Z,18.95
2023-01-18T06:54:10.577Z,21.10
2023-01-18T06:56:43.214Z,22.52
2023-01-18T06:59:16.691Z,27.00
2023-01-18T07:01:49.437Z,19.08
2023-01-18T07:04:22.484Z,16.67
2023-01-18T07:06:55.058Z,31.40
2023-01-18T07:09:28.193Z,18.90
2023-01-18T07:12:00.707Z,20.95
2023-01-18T07:14:33.574Z,17.65
2023-01-18T07:17:06.242Z,18.42
2023-01-18T07:19:39.348Z,18.52
2023-01-18T07:22:12.813Z,11.77
2023-01-18T07:24:46.618Z,16.50
2023-01-18T07:27:19.253Z,17.92
2023-01-18T07:29:52.809Z,18.27
2023-01-18T07:32:25.330Z,21.48
2023-01-18T07:34:59.606Z,17.90
2023-01-18T07:37:32.294Z,17.88
2023-01-18T07:40:05.576Z,21.27
2023-01-18T07:42:38.205Z,15.55
2023-01-18T07:45:12.308Z,24.95
2023-01-18T07:47:46.611Z,181.52
2023-01-18T07:50:20.963Z,213.00
2023-01-18T07:52:53.492Z,52.03
2023-01-18T07:55:26.981Z,36.60
2023-01-18T07:58:00.120Z,31.00
2023-01-18T08:00:33.176Z,24.92
2023-01-18T08:03:06.168Z,26.33
2023-01-18T08:05:39.359Z,19.92
2023-01-18T08:08:13.436Z,20.00
2023-01-18T08:10:46.603Z,17.67
2023-01-18T08:13:19.776Z,29.17
2023-01-18T08:15:53.269Z,21.13
2023-01-18T08:18:25.936Z,16.95
2023-01-18T08:20:58.936Z,18.92
2023-01-18T08:23:31.497Z,26.45
2023-01-18T08:26:04.929Z,19.10
2023-01-18T08:28:37.607Z,26.58
2023-01-18T08:31:14.966Z,20.70
2023-01-18T08:33:49.071Z,36.45
2023-01-18T08:36:23.261Z,61.03
2023-01-18T08:38:59.574Z,35.90
2023-01-18T08:41:32.574Z,29.83
2023-01-18T08:44:05.211Z,26.10
2023-01-18T08:46:38.307Z,28.58
2023-01-18T08:49:11.205Z,40.35
2023-01-18T08:51:44.154Z,32.92
2023-01-18T08:54:16.649Z,29.23
2023-01-18T08:56:49.559Z,25.13
2023-01-18T08:59:23.051Z,30.27
2023-01-18T09:01:56.067Z,28.38
2023-01-18T09:04:31.463Z,26.13
2023-01-18T09:07:04.375Z,21.02
2023-01-18T09:09:37.011Z,19.65
2023-01-18T09:12:10.332Z,25.75
2023-01-18T09:14:42.901Z,19.33
2023-01-18T09:17:16.117Z,20.60
2023-01-18T09:19:48.669Z,22.92
2023-01-18T09:22:22.206Z,21.15
2023-01-18T09:24:54.836Z,28.05
2023-01-18T09:27:27.870Z,17.80
2023-01-18T09:30:00.573Z,21.92
2023-01-18T09:32:33.487Z,20.48
2023-01-18T09:35:06.467Z,28.65
2023-01-18T09:37:39.385Z,31.45
2023-01-18T09:40:16.826Z,30.00
2023-01-18T09:42:51.772Z,31.10
2023-01-18T09:45:32.872Z,25.33
2023-01-18T09:48:07.191Z,25.80
2023-01-18T09:50:44.695Z,24.33
2023-01-18T09:53:20.468Z,23.48
2023-01-18T09:56:13.356Z,27.83
2023-01-18T09:59:04.929Z,31.42
2023-01-18T10:01:41.543Z,24.17
2023-01-18T10:04:17.629Z,23.67
2023-01-18T10:06:56.751Z,24.77
2023-01-18T10:09:29.719Z,30.83
2023-01-18T10:12:13.432Z,31.10
2023-01-18T10:14:52.648Z,24.98
2023-01-18T10:17:28.819Z,35.15
2023-01-18T10:20:02.199Z,28.95
2023-01-18T10:22:53.284Z,28.13
2023-01-18T10:25:29.038Z,27.88
2023-01-18T10:28:25.478Z,30.98
2023-01-18T10:30:58.761Z,37.58
2023-01-18T10:33:34.645Z,33.65
2023-01-18T10:36:12.406Z,30.33
2023-01-18T10:38:45.882Z,47.15
2023-01-18T10:41:26.061Z,37.53
2023-01-18T10:43:58.606Z,25.95
2023-01-18T10:46:32.473Z,24.50
2023-01-18T10:49:05.198Z,39.83
2023-01-18T10:51:39.134Z,29.55
2023-01-18T10:54:20.595Z,24.88
2023-01-18T10:59:30.123Z,26.00
2023-01-18T11:02:03.883Z,31.38
2023-01-18T11:04:36.723Z,25.40
2023-01-18T11:07:09.979Z,22.30
2023-01-18T11:09:55.274Z,30.02
2023-01-18T11:12:38.311Z,39.88
2023-01-18T11:15:13.747Z,26.15
2023-01-18T11:18:00.638Z,35.85
2023-01-18T11:20:50.337Z,30.10
2023-01-18T11:23:28.509Z,24.35
2023-01-18T11:26:03.100Z,25.90
2023-01-18T11:28:40.354Z,20.77
2023-01-18T11:31:18.677Z,32.58
2023-01-18T11:33:53.928Z,36.75
2023-01-18T11:36:38.878Z,31.05
2023-01-18T11:39:25.092Z,30.42
2023-01-18T11:42:32.913Z,41.40
2023-01-18T11:45:12.786Z,31.38
2023-01-18T11:47:45.279Z,40.78
2023-01-18T11:50:50.582Z,25.02
2023-01-18T11:53:41.899Z,34.72
2023-01-18T11:56:33.252Z,27.70
2023-01-18T11:59:12.730Z,27.90
2023-01-18T12:02:04.088Z,41.92
2023-01-18T12:04:42.600Z,27.83
2023-01-18T12:07:27.634Z,35.22
2023-01-18T12:10:02.138Z,48.55
2023-01-18T12:12:34.970Z,49.33
2023-01-18T12:15:07.551Z,49.45
2023-01-18T12:18:12.412Z,58.38
2023-01-18T12:21:00.062Z,56.65
2023-01-18T12:23:51.317Z,42.55
2023-01-18T12:26:26.608Z,28.27
2023-01-18T12:29:08.764Z,25.13
2023-01-18T12:34:15.375Z,29.60
2023-01-18T12:37:00.294Z,41.13
2023-01-18T12:39:39.367Z,27.77
2023-01-18T12:42:28.401Z,19.83
2023-01-18T12:45:10.112Z,21.30
2023-01-18T12:47:52.681Z,15.43
2023-01-18T12:50:27.724Z,25.02
2023-01-18T12:53:02.940Z,21.92
2023-01-18T12:55:38.025Z,26.90
2023-01-18T12:58:14.707Z,19.95
2023-01-18T13:00:57.886Z,21.38
2023-01-18T13:03:35.696Z,20.30
2023-01-18T13:06:09.714Z,29.00
2023-01-18T13:08:45.298Z,17.90
2023-01-18T13:11:26.207Z,21.58
2023-01-18T13:14:10.200Z,29.13
2023-01-18T13:17:08.880Z,19.52
2023-01-18T13:20:01.180Z,25.48
2023-01-18T13:22:53.952Z,26.95
2023-01-18T13:25:49.975Z,24.55
2023-01-18T13:28:24.105Z,28.27
2023-01-18T13:31:02.014Z,23.70
2023-01-18T13:33:37.051Z,18.23
2023-01-18T13:36:14.558Z,19.50
2023-01-18T13:38:50.985Z,23.15
2023-01-18T13:41:25.123Z,23.17
2023-01-18T13:43:59.478Z,20.52
2023-01-18T13:46:35.573Z,22.42
2023-01-18T13:49:36.168Z,19.08
2023-01-18T13:52:28.202Z,23.98
2023-01-18T13:55:04.142Z,34.80
2023-01-18T13:57:36.938Z,31.15
2023-01-18T14:00:21.972Z,35.33
2023-01-18T14:03:02.563Z,27.80
2023-01-18T14:05:42.787Z,20.42
2023-01-18T14:08:23.099Z,18.25
2023-01-18T14:10:59.155Z,28.98
2023-01-18T14:13:46.820Z,23.27
2023-01-18T14:16:22.278Z,19.38
2023-01-18T14:18:55.331Z,20.55
2023-01-18T14:21:40.487Z,21.55
2023-01-18T14:24:22.127Z,23.75
2023-01-18T14:26:56.668Z,21.10
2023-01-18T14:29:49.639Z,15.85
2023-01-18T14:32:26.447Z,23.92
2023-01-18T14:34:59.474Z,13.60
2023-01-18T14:37:33.891Z,19.77
2023-01-18T14:40:06.636Z,14.20
2023-01-18T14:42:43.580Z,20.20
2023-01-18T14:45:27.392Z,25.63
2023-01-18T14:48:01.608Z,20.98
2023-01-18T14:50:38.006Z,23.27
2023-01-18T14:53:31.200Z,20.73
2023-01-18T14:56:06.987Z,19.02
2023-01-18T14:58:45.086Z,17.25
2023-01-18T15:01:23.900Z,25.27
2023-01-18T15:03:58.254Z,19.75
2023-01-18T15:06:37.002Z,33.38
2023-01-18T15:09:10.301Z,49.78
2023-01-18T15:11:43.521Z,57.22
2023-01-18T15:14:18.511Z,51.55
2023-01-18T15:16:52.415Z,61.97
2023-01-18T15:19:32.435Z,67.03
2023-01-18T15:22:07.015Z,58.30
2023-01-18T15:24:41.955Z,29.83
2023-01-18T15:27:17.870Z,27.35
2023-01-18T15:29:53.861Z,22.60
2023-01-18T15:32:27.607Z,20.73
2023-01-18T15:35:01.167Z,12.05
2023-01-18T15:37:34.690Z,24.17
2023-01-18T15:40:08.039Z,26.73
2023-01-18T15:42:59.482Z,24.42
2023-01-18T15:45:34.039Z,33.53
2023-01-18T15:48:13.809Z,27.60
2023-01-18T15:50:51.365Z,30.08
2023-01-18T15:53:56.602Z,24.55
2023-01-18T15:56:31.175Z,28.10
2023-01-18T15:59:08.387Z,33.85
2023-01-18T16:01:42.440Z,44.08
2023-01-18T16:04:24.985Z,37.28
2023-01-18T16:06:58.911Z,32.13
2023-01-18T16:09:32.776Z,43.05
2023-01-18T16:12:08.101Z,39.25
2023-01-18T16:14:46.586Z,49.97
2023-01-18T16:17:23.964Z,52.08
2023-01-18T16:19:57.812Z,65.53
2023-01-18T16:22:34.739Z,57.67
2023-01-18T16:25:07.310Z,46.30
2023-01-18T16:27:56.180Z,40.67
2023-01-18T16:30:35.130Z,41.35
2023-01-18T16:33:15.073Z,59.63
2023-01-18T16:35:48.042Z,35.80
2023-01-18T16:38:20.920Z,36.47
2023-01-18T16:40:53.679Z,38.85
2023-01-18T16:43:29.980Z,41.50
2023-01-18T16:46:04.395Z,52.15
2023-01-18T16:48:38.003Z,52.78
2023-01-18T16:51:14.672Z,56.63
2023-01-18T16:53:49.766Z,58.10
2023-01-18T16:56:22.797Z,51.45
2023-01-18T16:58:55.799Z,52.45
2023-01-18T17:01:30.211Z,75.97
2023-01-18T17:04:03.240Z,56.85
2023-01-18T17:06:35.774Z,57.90
2023-01-18T17:09:22.326Z,88.25
2023-01-18T17:11:55.261Z,75.97
2023-01-18T17:14:28.175Z,67.88
2023-01-18T17:17:01.078Z,72.43
2023-01-18T17:19:34.060Z,30.88
2023-01-18T17:22:06.966Z,28.27
2023-01-18T17:24:40.231Z,43.20
2023-01-18T17:27:13.408Z,36.40
2023-01-18T17:29:47.409Z,42.40
2023-01-18T17:32:19.910Z,53.25
2023-01-18T17:34:52.906Z,86.18
2023-01-18T17:37:27.889Z,172.80
2023-01-18T17:40:16.404Z,154.18
2023-01-18T17:42:50.080Z,85.88
2023-01-18T17:45:23.137Z,81.45
2023-01-18T17:47:55.614Z,39.08
2023-01-18T17:50:29.467Z,48.97
2023-01-18T17:53:02.276Z,49.92
2023-01-18T17:55:35.347Z,34.75
2023-01-18T17:58:08.264Z,34.13
2023-01-18T18:00:41.354Z,52.03
2023-01-18T18:03:13.888Z,52.45
2023-01-18T18:05:46.796Z,56.85
2023-01-18T18:08:20.826Z,51.00
2023-01-18T18:10:55.581Z,32.45
2023-01-18T18:13:28.891Z,46.63
2023-01-18T18:16:02.229Z,54.75
2023-01-18T18:18:34.820Z,30.85
2023-01-18T18:21:08.129Z,41.15
2023-01-18T18:23:40.847Z,35.13
2023-01-18T18:26:13.741Z,38.55
2023-01-18T18:28:46.356Z,45.28
2023-01-18T18:31:21.052Z,51.08
2023-01-18T18:33:53.661Z,45.88
2023-01-18T18:36:27.937Z,42.30
2023-01-18T18:39:04.589Z,34.13
2023-01-18T18:41:38.037Z,34.00
2023-01-18T18:44:10.599Z,34.67
2023-01-18T18:46:43.595Z,36.67
2023-01-18T18:49:16.271Z,37.60
2023-01-18T18:51:49.308Z,39.38
2023-01-18T18:54:21.843Z,57.58
2023-01-18T18:56:54.773Z,62.00
2023-01-18T18:59:27.434Z,56.67
2023-01-18T19:02:00.344Z,44.83
2023-01-18T19:04:33.403Z,53.42
2023-01-18T19:07:06.318Z,77.85
2023-01-18T19:09:38.919Z,75.25
2023-01-18T19:12:12.139Z,62.72
2023-01-18T19:14:44.698Z,57.28
2023-01-18T19:17:28.999Z,59.90
2023-01-18T19:20:02.248Z,46.05
2023-01-18T19:22:37.113Z,50.22
2023-01-18T19:25:09.861Z,47.85
2023-01-18T19:27:43.146Z,55.22
2023-01-18T19:30:21.721Z,124.72
2023-01-18T19:32:54.669Z,163.85
2023-01-18T19:35:27.405Z,127.75
2023-01-18T19:38:01.212Z,168.00
2023-01-18T19:40:34.056Z,149.23
2023-01-18T19:43:07.575Z,185.07
2023-01-18T19:45:40.176Z,146.40
2023-01-18T19:48:13.256Z,128.10
2023-01-18T19:50:45.797Z,131.73
2023-01-18T19:53:18.660Z,119.32
2023-01-18T19:56:06.492Z,87.70
2023-01-18T19:58:43.093Z,105.20
2023-01-18T20:01:30.097Z,91.97
2023-01-18T20:04:08.730Z,91.75
2023-01-18T20:06:43.759Z,88.85
2023-01-18T20:09:21.158Z,100.90
2023-01-18T20:11:54.786Z,97.50
2023-01-18T20:14:40.266Z,83.72
2023-01-18T20:17:17.052Z,100.57
2023-01-18T20:19:51.298Z,92.30
2023-01-18T20:22:24.017Z,96.43
2023-01-18T20:24:56.919Z,98.38
2023-01-18T20:27:29.454Z,84.15
2023-01-18T20:30:02.633Z,87.82
2023-01-18T20:32:35.265Z,64.22
2023-01-18T20:35:08.348Z,53.88
2023-01-18T20:37:41.647Z,64.88
2023-01-18T20:40:14.752Z,83.10
2023-01-18T20:42:47.440Z,59.97
2023-01-18T20:45:20.723Z,61.70
2023-01-18T20:47:53.563Z,67.53
2023-01-18T20:50:26.707Z,68.28
2023-01-18T20:52:59.680Z,55.90
2023-01-18T20:55:34.025Z,60.65
2023-01-18T20:58:06.637Z,60.28
2023-01-18T21:00:39.844Z,59.90
2023-01-18T21:03:13.928Z,55.38
2023-01-18T21:05:48.443Z,69.30
2023-01-18T21:08:22.006Z,85.68
2023-01-18T21:10:55.344Z,72.72
2023-01-18T21:13:28.036Z,64.93
2023-01-18T21:16:01.177Z,76.30
2023-01-18T21:18:33.786Z,76.75
2023-01-18T21:21:06.956Z,73.63
2023-01-18T21:23:39.812Z,70.97
2023-01-18T21:26:13.210Z,86.38
2023-01-18T21:28:46.468Z,90.90
2023-01-18T21:31:19.650Z,64.05
2023-01-18T21:33:53.200Z,74.47
2023-01-18T21:36:26.081Z,83.75
2023-01-18T21:38:58.657Z,88.07
2023-01-18T21:41:49.899Z,86.03
2023-01-18T21:44:41.083Z,89.30
2023-01-18T21:47:14.005Z,129.00
2023-01-18T21:50:17.604Z,169.45
2023-01-18T21:53:09.578Z,77.70
2023-01-18T21:55:42.168Z,63.95
2023-01-18T21:58:33.951Z,60.13
2023-01-18T22:01:13.043Z,75.07
2023-01-18T22:04:04.663Z,83.85
2023-01-18T22:06:37.765Z,69.95
2023-01-18T22:09:10.928Z,84.78
2023-01-18T22:11:43.786Z,83.18
2023-01-18T22:14:16.698Z,101.93
2023-01-18T22:16:49.291Z,103.85
2023-01-18T22:19:22.429Z,62.28
2023-01-18T22:21:54.989Z,69.03
2023-01-18T22:24:27.934Z,66.50
2023-01-18T22:27:00.409Z,83.65
2023-01-18T22:29:33.677Z,107.65
2023-01-18T22:32:06.380Z,131.43
2023-01-18T22:34:39.318Z,97.60
2023-01-18T22:37:11.813Z,98.40
2023-01-18T22:39:44.855Z,88.88
2023-01-18T22:42:17.430Z,95.25
2023-01-18T22:44:50.574Z,79.70
2023-01-18T22:47:23.103Z,62.33
2023-01-18T22:49:56.121Z,56.58
2023-01-18T22:52:29.162Z,50.92
2023-01-18T22:55:02.229Z,51.60
2023-01-18T22:57:34.838Z,41.88
2023-01-18T23:00:08.138Z,51.40
2023-01-18T23:02:40.681Z,35.20
2023-01-18T23:05:13.750Z,32.97
2023-01-18T23:07:46.200Z,39.63
2023-01-18T23:10:19.240Z,27.70
2023-01-18T23:12:52.608Z,29.30
2023-01-18T23:15:44.216Z,30.77
2023-01-18T23:18:16.881Z,30.75
2023-01-18T23:20:56.038Z,28.73
2023-01-18T23:23:28.628Z,27.63
2023-01-18T23:26:01.487Z,28.55
2023-01-18T23:28:42.915Z,34.45
2023-01-18T23:31:17.352Z,33.42
2023-01-18T23:33:49.976Z,38.75
2023-01-18T23:36:23.982Z,47.10
2023-01-18T23:39:14.992Z,33.40
2023-01-18T23:42:06.364Z,36.75
2023-01-18T23:44:57.476Z,35.65
2023-01-18T23:47:48.764Z,131.38
2023-01-18T23:50:40.029Z,90.50
2023-01-18T23:53:31.864Z,159.88
2023-01-18T23:56:04.540Z,75.15
2023-01-18T23:58:39.522Z,72.28
